Rianapolis, Brazil
Current Conditions -  °F | °C
As of 6:00 PM on Friday 19 Dec 2014 (Local Time) from SBAN Reporting Station
Broken Clouds Broken Clouds  
Wind Chill: 75°   Ceiling: 10000
Heat Index: 75°   Visibility: 6mi
Dew Point: 61°   Wind: 6mph
Humidity: 61%   Direction: 350°N
Pressure: 29.91"   Gusts: NA
Location:  15.49°S, 49.46°W
Report Text: SBAN 192000Z 35005KT 9999 SCT025 FEW030TCU BKN100 24/16 Q1013
Loading
Personal Weather Stations






























Interactive Weather Map New forecast layout! Learn more

10-Day Weather Forecast

Advertisements
Track Severe Weather on mobile